Fahri Eksioglu — TCUH — position and weather

sailwx.info

Track history (hours):
 
Tides and Currents Weather Stations Pressure Air Temp Water Temp Dewpoint Dewpoint Depression Visibility Wind Speed Wind Dir Waves Ship Positions

Fahri Eksioglu

Last reported at 2015-Apr-28 05:23 UTC. Time now 2015-Apr-28 18:15 UTC.
Position N 46°19' E 030°40'.

Length 89 m; draft 3.8 m.

Type: Cargo ship. MMSI: 271000450.

Date/timePositionNaut miles runAvg speedWind from/ knotsBaromVisibWave heightAir tempDewpointWater temp
2015-Apr-28 05:23N 46°19' E 030°40'0 0.0
2015-Apr-28 04:33N 46°19' E 030°40'0 0.0
2015-Apr-28 03:21N 46°19' E 030°40'0 0.0
2015-Apr-28 02:32N 46°19' E 030°40'0 0.0
2015-Apr-28 01:31N 46°19' E 030°40'0 0.0
2015-Apr-28 00:31N 46°19' E 030°40'0 0.0
2015-Apr-27 23:28N 46°19' E 030°40'0 0.0
2015-Apr-27 22:33N 46°19' E 030°40'0 0.0
2015-Apr-27 21:32N 46°19' E 030°40'0 0.0
2015-Apr-27 20:30N 46°19' E 030°40'0 0.0
2015-Apr-27 19:32N 46°19' E 030°40'0 0.0
2015-Apr-27 17:32N 46°19' E 030°40'0 0.0
2015-Apr-27 16:32N 46°19' E 030°40'0 0.0
2015-Apr-27 15:28N 46°19' E 030°40'0 0.0
2015-Apr-27 14:33N 46°19' E 030°40'0 0.0
2015-Apr-27 13:33N 46°19' E 030°40'0 0.0
2015-Apr-27 09:04N 46°19' E 030°40'0 0.0
2015-Apr-27 08:23N 46°19' E 030°40'0 0.0
2015-Apr-27 07:33N 46°19' E 030°40'  
2015-Apr-20 13:32N 44°08' E 033°56'7 5.2
2015-Apr-20 12:15N 44°11' E 034°04'5 5.6
2015-Apr-20 11:18N 44°13' E 034°11'4 5.4
2015-Apr-20 10:33N 44°13' E 034°16'6 6.0
2015-Apr-20 09:31N 44°13' E 034°25'7 6.7
2015-Apr-20 08:33N 44°13' E 034°34'7 7.3
2015-Apr-20 07:33N 44°17' E 034°43'8 7.9
2015-Apr-20 06:33N 44°21' E 034°52'8 8.0
2015-Apr-20 05:30N 44°24' E 035°03'8 7.8
2015-Apr-20 04:28N 44°24' E 035°15'84 7.0
2015-Apr-19 16:21N 44°29' E 037°12'5 6.7
2015-Apr-19 15:33N 44°32' E 037°19'7 7.0
2015-Apr-19 14:34N 44°33' E 037°29'7 6.7
2015-Apr-19 13:34N 44°34' E 037°38'8 7.7
2015-Apr-19 12:34N 44°38' E 037°48'6 6.1
2015-Apr-19 11:34N 44°44' E 037°48'0 0.0
2015-Apr-19 10:31N 44°44' E 037°48'0 0.0
2015-Apr-19 09:32N 44°44' E 037°48'0 0.0
2015-Apr-19 08:28N 44°44' E 037°48'0 0.0
2015-Apr-19 07:31N 44°44' E 037°48'0 0.0
2015-Apr-19 06:33N 44°44' E 037°48'0 0.0
2015-Apr-19 05:30N 44°44' E 037°48'0 0.0
2015-Apr-19 04:34N 44°44' E 037°48'0 0.0
2015-Apr-19 03:32N 44°44' E 037°48'0 0.0
2015-Apr-19 02:31N 44°44' E 037°48'0 0.0
2015-Apr-19 01:33N 44°44' E 037°48'0 0.0
2015-Apr-19 00:33N 44°44' E 037°48'0 0.0
2015-Apr-18 23:32N 44°44' E 037°48'0 0.0
2015-Apr-18 22:32N 44°44' E 037°48'0 0.0
2015-Apr-18 21:32N 44°44' E 037°48'0 0.0
2015-Apr-18 20:31N 44°44' E 037°48'0 0.0
2015-Apr-18 19:32N 44°44' E 037°48'0 0.0
2015-Apr-18 18:32N 44°44' E 037°48'0 0.0
2015-Apr-18 17:32N 44°44' E 037°48'0 0.0
2015-Apr-18 16:33N 44°44' E 037°48'0 0.0
2015-Apr-18 15:33N 44°44' E 037°48'0 0.0
2015-Apr-18 14:33N 44°44' E 037°48'0 0.0
2015-Apr-18 13:32N 44°44' E 037°48'0 0.0
2015-Apr-18 12:33N 44°44' E 037°48'0 0.0
2015-Apr-18 11:31N 44°44' E 037°48'0 0.0
2015-Apr-18 10:33N 44°44' E 037°48'0 0.0
2015-Apr-18 09:33N 44°44' E 037°48'0 0.0
2015-Apr-18 08:33N 44°44' E 037°48'0 0.0
2015-Apr-18 07:32N 44°44' E 037°48'0 0.0
2015-Apr-18 06:31N 44°44' E 037°48'0 0.0
2015-Apr-18 05:33N 44°44' E 037°48'  
Track history (hours):
 
Tides and Currents Weather Stations Pressure Air Temp Water Temp Dewpoint Dewpoint Depression Visibility Wind Speed Wind Dir Waves Ship Positions

Fahri Eksioglu

Last reported at 2015-Apr-28 05:23 UTC. Time now 2015-Apr-28 18:15 UTC.
Position N 46°19' E 030°40'.

Length 89 m; draft 3.8 m.

Type: Cargo ship. MMSI: 271000450.

Date/timePositionNaut miles runAvg speedWind from/ knotsBaromVisibWave heightAir tempDewpointWater temp
2015-Apr-28 05:23N 46°19' E 030°40'0 0.0
2015-Apr-28 04:33N 46°19' E 030°40'0 0.0
2015-Apr-28 03:21N 46°19' E 030°40'0 0.0
2015-Apr-28 02:32N 46°19' E 030°40'0 0.0
2015-Apr-28 01:31N 46°19' E 030°40'0 0.0
2015-Apr-28 00:31N 46°19' E 030°40'0 0.0
2015-Apr-27 23:28N 46°19' E 030°40'0 0.0
2015-Apr-27 22:33N 46°19' E 030°40'0 0.0
2015-Apr-27 21:32N 46°19' E 030°40'0 0.0
2015-Apr-27 20:30N 46°19' E 030°40'0 0.0
2015-Apr-27 19:32N 46°19' E 030°40'0 0.0
2015-Apr-27 17:32N 46°19' E 030°40'0 0.0
2015-Apr-27 16:32N 46°19' E 030°40'0 0.0
2015-Apr-27 15:28N 46°19' E 030°40'0 0.0
2015-Apr-27 14:33N 46°19' E 030°40'0 0.0
2015-Apr-27 13:33N 46°19' E 030°40'0 0.0
2015-Apr-27 09:04N 46°19' E 030°40'0 0.0
2015-Apr-27 08:23N 46°19' E 030°40'0 0.0
2015-Apr-27 07:33N 46°19' E 030°40'  
2015-Apr-20 13:32N 44°08' E 033°56'7 5.2
2015-Apr-20 12:15N 44°11' E 034°04'5 5.6
2015-Apr-20 11:18N 44°13' E 034°11'4 5.4
2015-Apr-20 10:33N 44°13' E 034°16'6 6.0
2015-Apr-20 09:31N 44°13' E 034°25'7 6.7
2015-Apr-20 08:33N 44°13' E 034°34'7 7.3
2015-Apr-20 07:33N 44°17' E 034°43'8 7.9
2015-Apr-20 06:33N 44°21' E 034°52'8 8.0
2015-Apr-20 05:30N 44°24' E 035°03'8 7.8
2015-Apr-20 04:28N 44°24' E 035°15'84 7.0
2015-Apr-19 16:21N 44°29' E 037°12'5 6.7
2015-Apr-19 15:33N 44°32' E 037°19'7 7.0
2015-Apr-19 14:34N 44°33' E 037°29'7 6.7
2015-Apr-19 13:34N 44°34' E 037°38'8 7.7
2015-Apr-19 12:34N 44°38' E 037°48'6 6.1
2015-Apr-19 11:34N 44°44' E 037°48'0 0.0
2015-Apr-19 10:31N 44°44' E 037°48'0 0.0
2015-Apr-19 09:32N 44°44' E 037°48'0 0.0
2015-Apr-19 08:28N 44°44' E 037°48'0 0.0
2015-Apr-19 07:31N 44°44' E 037°48'0 0.0
2015-Apr-19 06:33N 44°44' E 037°48'0 0.0
2015-Apr-19 05:30N 44°44' E 037°48'0 0.0
2015-Apr-19 04:34N 44°44' E 037°48'0 0.0
2015-Apr-19 03:32N 44°44' E 037°48'0 0.0
2015-Apr-19 02:31N 44°44' E 037°48'0 0.0
2015-Apr-19 01:33N 44°44' E 037°48'0 0.0
2015-Apr-19 00:33N 44°44' E 037°48'0 0.0
2015-Apr-18 23:32N 44°44' E 037°48'0 0.0
2015-Apr-18 22:32N 44°44' E 037°48'0 0.0
2015-Apr-18 21:32N 44°44' E 037°48'0 0.0
2015-Apr-18 20:31N 44°44' E 037°48'0 0.0
2015-Apr-18 19:32N 44°44' E 037°48'0 0.0
2015-Apr-18 18:32N 44°44' E 037°48'0 0.0
2015-Apr-18 17:32N 44°44' E 037°48'0 0.0
2015-Apr-18 16:33N 44°44' E 037°48'0 0.0
2015-Apr-18 15:33N 44°44' E 037°48'0 0.0
2015-Apr-18 14:33N 44°44' E 037°48'0 0.0
2015-Apr-18 13:32N 44°44' E 037°48'0 0.0
2015-Apr-18 12:33N 44°44' E 037°48'0 0.0
2015-Apr-18 11:31N 44°44' E 037°48'0 0.0
2015-Apr-18 10:33N 44°44' E 037°48'0 0.0
2015-Apr-18 09:33N 44°44' E 037°48'0 0.0
2015-Apr-18 08:33N 44°44' E 037°48'0 0.0
2015-Apr-18 07:32N 44°44' E 037°48'0 0.0
2015-Apr-18 06:31N 44°44' E 037°48'0 0.0
2015-Apr-18 05:33N 44°44' E 037°48'  

Dump ship's entire track history